sensor_id;sensor_type;location;lat;lon;timestamp;P1;durP1;ratioP1;P2;durP2;ratioP2
5918;SDS011;2985;48.142;16.344;2023-06-26T00:01:44;0.10;;;0.10;;
5918;SDS011;2985;48.142;16.344;2023-06-26T00:06:53;0.10;;;0.10;;
5918;SDS011;2985;48.142;16.344;2023-06-26T00:12:02;0.10;;;0.10;;
5918;SDS011;2985;48.142;16.344;2023-06-26T00:17:11;0.10;;;0.10;;
5918;SDS011;2985;48.142;16.344;2023-06-26T00:22:21;0.10;;;0.10;;
5918;SDS011;2985;48.142;16.344;2023-06-26T00:27:30;0.10;;;0.10;;
5918;SDS011;2985;48.142;16.344;2023-06-26T00:32:39;0.10;;;0.10;;
5918;SDS011;2985;48.142;16.344;2023-06-26T00:37:49;0.10;;;0.10;;
5918;SDS011;2985;48.142;16.344;2023-06-26T00:42:58;0.10;;;0.10;;
5918;SDS011;2985;48.142;16.344;2023-06-26T00:48:07;0.10;;;0.10;;
5918;SDS011;2985;48.142;16.344;2023-06-26T00:53:20;0.10;;;0.10;;
5918;SDS011;2985;48.142;16.344;2023-06-26T00:58:31;0.10;;;0.10;;
5918;SDS011;2985;48.142;16.344;2023-06-26T01:03:40;0.10;;;0.10;;
5918;SDS011;2985;48.142;16.344;2023-06-26T01:08:50;0.10;;;0.10;;
5918;SDS011;2985;48.142;16.344;2023-06-26T01:14:00;0.10;;;0.10;;
5918;SDS011;2985;48.142;16.344;2023-06-26T01:19:13;0.10;;;0.10;;
5918;SDS011;2985;48.142;16.344;2023-06-26T01:24:45;0.10;;;0.10;;
5918;SDS011;2985;48.142;16.344;2023-06-26T01:30:18;0.10;;;0.10;;
5918;SDS011;2985;48.142;16.344;2023-06-26T01:35:29;0.10;;;0.10;;
5918;SDS011;2985;48.142;16.344;2023-06-26T01:40:39;0.10;;;0.10;;
5918;SDS011;2985;48.142;16.344;2023-06-26T01:45:50;0.10;;;0.10;;
5918;SDS011;2985;48.142;16.344;2023-06-26T01:51:02;0.10;;;0.10;;
5918;SDS011;2985;48.142;16.344;2023-06-26T01:56:13;0.10;;;0.10;;
5918;SDS011;2985;48.142;16.344;2023-06-26T02:01:24;0.10;;;0.10;;
5918;SDS011;2985;48.142;16.344;2023-06-26T02:06:33;0.10;;;0.10;;
5918;SDS011;2985;48.142;16.344;2023-06-26T02:16:43;0.10;;;0.10;;
5918;SDS011;2985;48.142;16.344;2023-06-26T02:21:53;0.10;;;0.10;;
5918;SDS011;2985;48.142;16.344;2023-06-26T02:27:02;0.10;;;0.10;;
5918;SDS011;2985;48.142;16.344;2023-06-26T02:32:12;0.10;;;0.10;;
5918;SDS011;2985;48.142;16.344;2023-06-26T02:37:21;0.10;;;0.10;;
5918;SDS011;2985;48.142;16.344;2023-06-26T02:42:31;0.10;;;0.10;;
5918;SDS011;2985;48.142;16.344;2023-06-26T02:47:40;0.10;;;0.10;;
5918;SDS011;2985;48.142;16.344;2023-06-26T02:52:49;0.10;;;0.10;;
5918;SDS011;2985;48.142;16.344;2023-06-26T02:58:01;0.10;;;0.10;;
5918;SDS011;2985;48.142;16.344;2023-06-26T03:03:10;0.10;;;0.10;;
5918;SDS011;2985;48.142;16.344;2023-06-26T03:08:19;0.10;;;0.10;;
5918;SDS011;2985;48.142;16.344;2023-06-26T03:13:28;0.10;;;0.10;;
5918;SDS011;2985;48.142;16.344;2023-06-26T03:18:37;0.10;;;0.10;;
5918;SDS011;2985;48.142;16.344;2023-06-26T03:23:46;0.10;;;0.10;;
5918;SDS011;2985;48.142;16.344;2023-06-26T03:28:55;0.10;;;0.10;;
5918;SDS011;2985;48.142;16.344;2023-06-26T03:34:04;0.10;;;0.10;;
5918;SDS011;2985;48.142;16.344;2023-06-26T03:39:13;0.10;;;0.10;;
5918;SDS011;2985;48.142;16.344;2023-06-26T03:44:22;0.10;;;0.10;;
5918;SDS011;2985;48.142;16.344;2023-06-26T03:49:32;0.10;;;0.10;;
5918;SDS011;2985;48.142;16.344;2023-06-26T03:54:41;0.10;;;0.10;;
5918;SDS011;2985;48.142;16.344;2023-06-26T03:59:50;0.10;;;0.10;;
5918;SDS011;2985;48.142;16.344;2023-06-26T04:05:01;0.10;;;0.10;;
5918;SDS011;2985;48.142;16.344;2023-06-26T04:10:12;0.10;;;0.10;;
5918;SDS011;2985;48.142;16.344;2023-06-26T04:15:21;0.10;;;0.10;;
5918;SDS011;2985;48.142;16.344;2023-06-26T04:20:30;0.10;;;0.10;;
5918;SDS011;2985;48.142;16.344;2023-06-26T04:25:40;0.10;;;0.10;;
5918;SDS011;2985;48.142;16.344;2023-06-26T04:30:49;0.10;;;0.10;;
5918;SDS011;2985;48.142;16.344;2023-06-26T04:35:59;0.10;;;0.10;;
5918;SDS011;2985;48.142;16.344;2023-06-26T04:41:12;0.10;;;0.10;;
5918;SDS011;2985;48.142;16.344;2023-06-26T04:46:21;0.10;;;0.10;;
5918;SDS011;2985;48.142;16.344;2023-06-26T04:51:30;0.10;;;0.10;;
5918;SDS011;2985;48.142;16.344;2023-06-26T04:56:39;0.10;;;0.10;;
5918;SDS011;2985;48.142;16.344;2023-06-26T05:01:48;0.10;;;0.10;;
5918;SDS011;2985;48.142;16.344;2023-06-26T05:06:58;0.10;;;0.10;;
5918;SDS011;2985;48.142;16.344;2023-06-26T05:12:08;0.10;;;0.10;;
5918;SDS011;2985;48.142;16.344;2023-06-26T05:17:17;0.10;;;0.10;;
5918;SDS011;2985;48.142;16.344;2023-06-26T05:22:27;0.10;;;0.10;;
5918;SDS011;2985;48.142;16.344;2023-06-26T05:27:36;0.10;;;0.10;;
5918;SDS011;2985;48.142;16.344;2023-06-26T05:32:46;0.10;;;0.10;;
5918;SDS011;2985;48.142;16.344;2023-06-26T05:37:56;0.10;;;0.10;;
5918;SDS011;2985;48.142;16.344;2023-06-26T05:43:07;0.10;;;0.10;;
5918;SDS011;2985;48.142;16.344;2023-06-26T05:48:16;0.10;;;0.10;;
5918;SDS011;2985;48.142;16.344;2023-06-26T05:53:26;0.10;;;0.10;;
5918;SDS011;2985;48.142;16.344;2023-06-26T05:58:36;0.10;;;0.10;;
5918;SDS011;2985;48.142;16.344;2023-06-26T06:03:46;0.10;;;0.10;;
5918;SDS011;2985;48.142;16.344;2023-06-26T06:08:55;0.10;;;0.10;;
5918;SDS011;2985;48.142;16.344;2023-06-26T06:14:05;0.10;;;0.10;;
5918;SDS011;2985;48.142;16.344;2023-06-26T06:19:14;0.10;;;0.10;;
5918;SDS011;2985;48.142;16.344;2023-06-26T06:24:23;0.10;;;0.10;;
5918;SDS011;2985;48.142;16.344;2023-06-26T06:29:32;0.10;;;0.10;;
5918;SDS011;2985;48.142;16.344;2023-06-26T06:34:41;0.10;;;0.10;;
5918;SDS011;2985;48.142;16.344;2023-06-26T06:39:50;0.10;;;0.10;;
5918;SDS011;2985;48.142;16.344;2023-06-26T06:44:59;0.00;;;0.00;;
5918;SDS011;2985;48.142;16.344;2023-06-26T06:50:10;0.10;;;0.10;;
5918;SDS011;2985;48.142;16.344;2023-06-26T06:55:19;0.10;;;0.10;;
5918;SDS011;2985;48.142;16.344;2023-06-26T07:00:28;0.00;;;0.00;;
5918;SDS011;2985;48.142;16.344;2023-06-26T07:05:38;0.10;;;0.10;;
5918;SDS011;2985;48.142;16.344;2023-06-26T07:10:47;0.10;;;0.10;;
5918;SDS011;2985;48.142;16.344;2023-06-26T07:15:56;0.10;;;0.10;;
5918;SDS011;2985;48.142;16.344;2023-06-26T07:21:05;0.10;;;0.10;;
5918;SDS011;2985;48.142;16.344;2023-06-26T07:26:14;0.10;;;0.10;;
5918;SDS011;2985;48.142;16.344;2023-06-26T07:31:24;0.00;;;0.00;;
5918;SDS011;2985;48.142;16.344;2023-06-26T07:36:33;0.10;;;0.10;;
5918;SDS011;2985;48.142;16.344;2023-06-26T07:41:42;0.03;;;0.03;;
5918;SDS011;2985;48.142;16.344;2023-06-26T07:46:51;0.10;;;0.10;;
5918;SDS011;2985;48.142;16.344;2023-06-26T08:08:35;0.10;;;0.10;;
5918;SDS011;2985;48.142;16.344;2023-06-26T08:13:58;0.00;;;0.00;;
5918;SDS011;2985;48.142;16.344;2023-06-26T08:19:18;0.10;;;0.10;;
5918;SDS011;2985;48.142;16.344;2023-06-26T08:24:48;0.00;;;0.00;;
5918;SDS011;2985;48.142;16.344;2023-06-26T08:30:12;0.10;;;0.10;;
5918;SDS011;2985;48.142;16.344;2023-06-26T08:35:54;0.10;;;0.10;;
5918;SDS011;2985;48.142;16.344;2023-06-26T08:41:07;0.10;;;0.10;;
5918;SDS011;2985;48.142;16.344;2023-06-26T08:46:29;0.00;;;0.00;;
5918;SDS011;2985;48.142;16.344;2023-06-26T08:57:25;0.00;;;0.00;;
5918;SDS011;2985;48.142;16.344;2023-06-26T09:02:42;0.10;;;0.10;;
5918;SDS011;2985;48.142;16.344;2023-06-26T09:07:59;0.00;;;0.00;;
5918;SDS011;2985;48.142;16.344;2023-06-26T09:13:21;0.00;;;0.00;;
5918;SDS011;2985;48.142;16.344;2023-06-26T09:18:34;0.00;;;0.00;;
5918;SDS011;2985;48.142;16.344;2023-06-26T09:23:43;0.10;;;0.10;;
5918;SDS011;2985;48.142;16.344;2023-06-26T09:28:53;0.10;;;0.10;;
5918;SDS011;2985;48.142;16.344;2023-06-26T09:34:02;0.10;;;0.10;;
5918;SDS011;2985;48.142;16.344;2023-06-26T09:39:12;0.10;;;0.10;;
5918;SDS011;2985;48.142;16.344;2023-06-26T09:44:23;0.10;;;0.10;;
5918;SDS011;2985;48.142;16.344;2023-06-26T09:49:32;0.10;;;0.10;;
5918;SDS011;2985;48.142;16.344;2023-06-26T09:54:42;0.10;;;0.10;;
5918;SDS011;2985;48.142;16.344;2023-06-26T09:59:54;0.00;;;0.00;;
5918;SDS011;2985;48.142;16.344;2023-06-26T10:05:04;0.10;;;0.10;;
5918;SDS011;2985;48.142;16.344;2023-06-26T10:10:14;0.10;;;0.10;;
5918;SDS011;2985;48.142;16.344;2023-06-26T10:15:25;0.10;;;0.10;;
5918;SDS011;2985;48.142;16.344;2023-06-26T10:20:37;0.10;;;0.10;;
5918;SDS011;2985;48.142;16.344;2023-06-26T10:25:48;0.10;;;0.10;;
5918;SDS011;2985;48.142;16.344;2023-06-26T10:31:00;0.10;;;0.10;;
5918;SDS011;2985;48.142;16.344;2023-06-26T10:36:12;0.00;;;0.00;;
5918;SDS011;2985;48.142;16.344;2023-06-26T10:41:27;0.00;;;0.00;;
5918;SDS011;2985;48.142;16.344;2023-06-26T10:47:09;0.10;;;0.10;;
5918;SDS011;2985;48.142;16.344;2023-06-26T10:52:12;0.10;;;0.10;;
5918;SDS011;2985;48.142;16.344;2023-06-26T10:57:25;0.00;;;0.00;;
5918;SDS011;2985;48.142;16.344;2023-06-26T11:02:47;0.10;;;0.10;;
5918;SDS011;2985;48.142;16.344;2023-06-26T11:08:07;0.10;;;0.10;;
5918;SDS011;2985;48.142;16.344;2023-06-26T11:13:17;0.05;;;0.05;;
5918;SDS011;2985;48.142;16.344;2023-06-26T11:18:30;0.10;;;0.10;;
5918;SDS011;2985;48.142;16.344;2023-06-26T11:23:40;0.03;;;0.03;;
5918;SDS011;2985;48.142;16.344;2023-06-26T11:34:00;0.10;;;0.10;;
5918;SDS011;2985;48.142;16.344;2023-06-26T11:39:11;0.08;;;0.08;;
5918;SDS011;2985;48.142;16.344;2023-06-26T11:44:20;0.00;;;0.00;;
5918;SDS011;2985;48.142;16.344;2023-06-26T11:49:30;0.00;;;0.00;;
5918;SDS011;2985;48.142;16.344;2023-06-26T11:54:40;0.05;;;0.05;;
5918;SDS011;2985;48.142;16.344;2023-06-26T11:59:50;0.00;;;0.00;;
5918;SDS011;2985;48.142;16.344;2023-06-26T12:05:00;0.10;;;0.10;;
5918;SDS011;2985;48.142;16.344;2023-06-26T12:10:10;0.10;;;0.10;;
5918;SDS011;2985;48.142;16.344;2023-06-26T12:15:20;0.00;;;0.00;;
5918;SDS011;2985;48.142;16.344;2023-06-26T12:20:30;0.10;;;0.10;;
5918;SDS011;2985;48.142;16.344;2023-06-26T12:25:40;0.10;;;0.10;;
5918;SDS011;2985;48.142;16.344;2023-06-26T12:36:27;0.10;;;0.10;;
5918;SDS011;2985;48.142;16.344;2023-06-26T12:41:52;0.10;;;0.10;;
5918;SDS011;2985;48.142;16.344;2023-06-26T12:47:04;0.10;;;0.10;;
5918;SDS011;2985;48.142;16.344;2023-06-26T12:52:15;0.10;;;0.10;;
5918;SDS011;2985;48.142;16.344;2023-06-26T13:03:21;0.10;;;0.10;;
5918;SDS011;2985;48.142;16.344;2023-06-26T13:09:18;0.10;;;0.10;;
5918;SDS011;2985;48.142;16.344;2023-06-26T13:15:00;0.10;;;0.10;;
5918;SDS011;2985;48.142;16.344;2023-06-26T13:31:47;0.10;;;0.10;;
5918;SDS011;2985;48.142;16.344;2023-06-26T13:37:21;0.10;;;0.10;;
5918;SDS011;2985;48.142;16.344;2023-06-26T13:42:30;0.10;;;0.10;;
5918;SDS011;2985;48.142;16.344;2023-06-26T13:53:49;0.10;;;0.10;;
5918;SDS011;2985;48.142;16.344;2023-06-26T13:59:14;0.10;;;0.10;;
5918;SDS011;2985;48.142;16.344;2023-06-26T14:04:41;0.08;;;0.08;;
5918;SDS011;2985;48.142;16.344;2023-06-26T14:10:08;0.10;;;0.10;;
5918;SDS011;2985;48.142;16.344;2023-06-26T14:15:18;0.10;;;0.10;;
5918;SDS011;2985;48.142;16.344;2023-06-26T14:20:28;0.10;;;0.10;;
5918;SDS011;2985;48.142;16.344;2023-06-26T14:25:37;0.10;;;0.10;;
5918;SDS011;2985;48.142;16.344;2023-06-26T14:30:47;0.10;;;0.10;;
5918;SDS011;2985;48.142;16.344;2023-06-26T14:35:56;0.10;;;0.10;;
5918;SDS011;2985;48.142;16.344;2023-06-26T14:41:05;0.20;;;0.20;;
5918;SDS011;2985;48.142;16.344;2023-06-26T14:46:14;0.20;;;0.20;;
5918;SDS011;2985;48.142;16.344;2023-06-26T14:51:23;0.30;;;0.30;;
5918;SDS011;2985;48.142;16.344;2023-06-26T14:56:34;0.20;;;0.20;;
5918;SDS011;2985;48.142;16.344;2023-06-26T15:01:43;0.30;;;0.30;;
5918;SDS011;2985;48.142;16.344;2023-06-26T15:06:53;0.30;;;0.30;;
5918;SDS011;2985;48.142;16.344;2023-06-26T15:12:02;0.30;;;0.30;;
5918;SDS011;2985;48.142;16.344;2023-06-26T15:17:11;0.30;;;0.30;;
5918;SDS011;2985;48.142;16.344;2023-06-26T15:22:22;0.20;;;0.20;;
5918;SDS011;2985;48.142;16.344;2023-06-26T15:27:34;0.20;;;0.20;;
5918;SDS011;2985;48.142;16.344;2023-06-26T15:32:43;0.30;;;0.30;;
5918;SDS011;2985;48.142;16.344;2023-06-26T15:37:53;0.27;;;0.27;;
5918;SDS011;2985;48.142;16.344;2023-06-26T15:43:02;0.30;;;0.30;;
5918;SDS011;2985;48.142;16.344;2023-06-26T15:48:12;0.30;;;0.30;;
5918;SDS011;2985;48.142;16.344;2023-06-26T15:53:22;0.20;;;0.20;;
5918;SDS011;2985;48.142;16.344;2023-06-26T15:58:44;0.30;;;0.30;;
5918;SDS011;2985;48.142;16.344;2023-06-26T16:03:55;0.10;;;0.10;;
5918;SDS011;2985;48.142;16.344;2023-06-26T16:09:05;0.10;;;0.10;;
5918;SDS011;2985;48.142;16.344;2023-06-26T16:14:15;0.10;;;0.10;;
5918;SDS011;2985;48.142;16.344;2023-06-26T16:19:24;0.10;;;0.10;;
5918;SDS011;2985;48.142;16.344;2023-06-26T16:24:34;0.10;;;0.10;;
5918;SDS011;2985;48.142;16.344;2023-06-26T16:29:43;0.10;;;0.10;;
5918;SDS011;2985;48.142;16.344;2023-06-26T16:34:52;0.10;;;0.10;;
5918;SDS011;2985;48.142;16.344;2023-06-26T16:40:01;0.10;;;0.10;;
5918;SDS011;2985;48.142;16.344;2023-06-26T16:45:11;0.03;;;0.03;;
5918;SDS011;2985;48.142;16.344;2023-06-26T16:50:20;0.10;;;0.10;;
5918;SDS011;2985;48.142;16.344;2023-06-26T16:55:30;0.03;;;0.03;;
5918;SDS011;2985;48.142;16.344;2023-06-26T17:00:39;0.10;;;0.10;;
5918;SDS011;2985;48.142;16.344;2023-06-26T17:05:49;0.10;;;0.10;;
5918;SDS011;2985;48.142;16.344;2023-06-26T17:10:59;0.10;;;0.10;;
5918;SDS011;2985;48.142;16.344;2023-06-26T17:16:09;0.00;;;0.00;;
5918;SDS011;2985;48.142;16.344;2023-06-26T17:21:19;0.10;;;0.10;;
5918;SDS011;2985;48.142;16.344;2023-06-26T17:26:29;0.10;;;0.10;;
5918;SDS011;2985;48.142;16.344;2023-06-26T17:31:39;0.10;;;0.10;;
5918;SDS011;2985;48.142;16.344;2023-06-26T17:36:48;0.10;;;0.10;;
5918;SDS011;2985;48.142;16.344;2023-06-26T17:41:58;0.10;;;0.10;;
5918;SDS011;2985;48.142;16.344;2023-06-26T17:47:10;0.10;;;0.10;;
5918;SDS011;2985;48.142;16.344;2023-06-26T17:52:19;0.10;;;0.10;;
5918;SDS011;2985;48.142;16.344;2023-06-26T17:57:28;0.05;;;0.05;;
5918;SDS011;2985;48.142;16.344;2023-06-26T18:02:38;0.10;;;0.10;;
5918;SDS011;2985;48.142;16.344;2023-06-26T18:07:49;0.10;;;0.10;;
5918;SDS011;2985;48.142;16.344;2023-06-26T18:12:58;0.10;;;0.10;;
5918;SDS011;2985;48.142;16.344;2023-06-26T18:18:09;0.10;;;0.10;;
5918;SDS011;2985;48.142;16.344;2023-06-26T18:23:18;0.00;;;0.00;;
5918;SDS011;2985;48.142;16.344;2023-06-26T18:28:27;0.00;;;0.00;;
5918;SDS011;2985;48.142;16.344;2023-06-26T18:33:40;0.00;;;0.00;;
5918;SDS011;2985;48.142;16.344;2023-06-26T18:38:49;0.00;;;0.00;;
5918;SDS011;2985;48.142;16.344;2023-06-26T18:43:59;0.00;;;0.00;;
5918;SDS011;2985;48.142;16.344;2023-06-26T18:49:08;0.00;;;0.00;;
5918;SDS011;2985;48.142;16.344;2023-06-26T18:54:18;0.00;;;0.00;;
5918;SDS011;2985;48.142;16.344;2023-06-26T18:59:27;0.00;;;0.00;;
5918;SDS011;2985;48.142;16.344;2023-06-26T19:04:37;0.00;;;0.00;;
5918;SDS011;2985;48.142;16.344;2023-06-26T19:09:47;0.00;;;0.00;;
5918;SDS011;2985;48.142;16.344;2023-06-26T19:14:57;0.00;;;0.00;;
5918;SDS011;2985;48.142;16.344;2023-06-26T19:20:07;0.00;;;0.00;;
5918;SDS011;2985;48.142;16.344;2023-06-26T19:25:16;0.10;;;0.10;;
5918;SDS011;2985;48.142;16.344;2023-06-26T19:30:25;0.00;;;0.00;;
5918;SDS011;2985;48.142;16.344;2023-06-26T19:35:35;0.10;;;0.10;;
5918;SDS011;2985;48.142;16.344;2023-06-26T19:40:45;0.03;;;0.03;;
5918;SDS011;2985;48.142;16.344;2023-06-26T19:45:55;0.00;;;0.00;;
5918;SDS011;2985;48.142;16.344;2023-06-26T19:51:04;0.00;;;0.00;;
5918;SDS011;2985;48.142;16.344;2023-06-26T19:56:14;0.10;;;0.10;;
5918;SDS011;2985;48.142;16.344;2023-06-26T20:01:24;0.00;;;0.00;;
5918;SDS011;2985;48.142;16.344;2023-06-26T20:06:37;0.00;;;0.00;;
5918;SDS011;2985;48.142;16.344;2023-06-26T20:11:47;0.10;;;0.10;;
5918;SDS011;2985;48.142;16.344;2023-06-26T20:16:56;0.00;;;0.00;;
5918;SDS011;2985;48.142;16.344;2023-06-26T20:22:06;0.10;;;0.10;;
5918;SDS011;2985;48.142;16.344;2023-06-26T20:27:15;0.10;;;0.10;;
5918;SDS011;2985;48.142;16.344;2023-06-26T20:32:24;0.10;;;0.10;;
5918;SDS011;2985;48.142;16.344;2023-06-26T20:37:33;0.00;;;0.00;;
5918;SDS011;2985;48.142;16.344;2023-06-26T20:42:42;0.10;;;0.10;;
5918;SDS011;2985;48.142;16.344;2023-06-26T20:47:52;0.00;;;0.00;;
5918;SDS011;2985;48.142;16.344;2023-06-26T20:53:02;0.10;;;0.10;;
5918;SDS011;2985;48.142;16.344;2023-06-26T20:58:11;0.10;;;0.10;;
5918;SDS011;2985;48.142;16.344;2023-06-26T21:03:20;0.10;;;0.10;;
5918;SDS011;2985;48.142;16.344;2023-06-26T21:08:29;0.00;;;0.00;;
5918;SDS011;2985;48.142;16.344;2023-06-26T21:13:38;0.00;;;0.00;;
5918;SDS011;2985;48.142;16.344;2023-06-26T21:18:47;0.10;;;0.10;;
5918;SDS011;2985;48.142;16.344;2023-06-26T21:23:57;0.10;;;0.10;;
5918;SDS011;2985;48.142;16.344;2023-06-26T21:29:06;0.00;;;0.00;;
5918;SDS011;2985;48.142;16.344;2023-06-26T21:34:16;0.10;;;0.10;;
5918;SDS011;2985;48.142;16.344;2023-06-26T21:39:25;0.00;;;0.00;;
5918;SDS011;2985;48.142;16.344;2023-06-26T21:44:34;0.10;;;0.10;;
5918;SDS011;2985;48.142;16.344;2023-06-26T21:49:44;0.10;;;0.10;;
5918;SDS011;2985;48.142;16.344;2023-06-26T21:54:53;0.10;;;0.10;;
5918;SDS011;2985;48.142;16.344;2023-06-26T22:00:02;0.00;;;0.00;;
5918;SDS011;2985;48.142;16.344;2023-06-26T22:05:12;0.10;;;0.10;;
5918;SDS011;2985;48.142;16.344;2023-06-26T22:10:22;0.10;;;0.10;;
5918;SDS011;2985;48.142;16.344;2023-06-26T22:15:31;0.10;;;0.10;;
5918;SDS011;2985;48.142;16.344;2023-06-26T22:20:41;0.10;;;0.10;;
5918;SDS011;2985;48.142;16.344;2023-06-26T22:25:50;0.10;;;0.10;;
5918;SDS011;2985;48.142;16.344;2023-06-26T22:30:59;0.00;;;0.00;;
5918;SDS011;2985;48.142;16.344;2023-06-26T22:36:09;0.10;;;0.10;;
5918;SDS011;2985;48.142;16.344;2023-06-26T22:41:19;0.10;;;0.10;;
5918;SDS011;2985;48.142;16.344;2023-06-26T22:46:28;0.10;;;0.10;;
5918;SDS011;2985;48.142;16.344;2023-06-26T22:51:38;0.00;;;0.00;;
5918;SDS011;2985;48.142;16.344;2023-06-26T22:56:47;0.10;;;0.10;;
5918;SDS011;2985;48.142;16.344;2023-06-26T23:01:57;0.10;;;0.10;;
5918;SDS011;2985;48.142;16.344;2023-06-26T23:07:06;0.10;;;0.10;;
5918;SDS011;2985;48.142;16.344;2023-06-26T23:12:15;0.10;;;0.10;;
5918;SDS011;2985;48.142;16.344;2023-06-26T23:17:25;0.10;;;0.10;;
5918;SDS011;2985;48.142;16.344;2023-06-26T23:22:36;0.10;;;0.10;;
5918;SDS011;2985;48.142;16.344;2023-06-26T23:27:45;0.10;;;0.10;;
5918;SDS011;2985;48.142;16.344;2023-06-26T23:32:54;0.10;;;0.10;;
5918;SDS011;2985;48.142;16.344;2023-06-26T23:38:03;0.10;;;0.10;;
5918;SDS011;2985;48.142;16.344;2023-06-26T23:43:12;0.10;;;0.10;;
5918;SDS011;2985;48.142;16.344;2023-06-26T23:48:22;0.10;;;0.10;;
5918;SDS011;2985;48.142;16.344;2023-06-26T23:53:32;0.10;;;0.10;;
5918;SDS011;2985;48.142;16.344;2023-06-26T23:58:41;0.10;;;0.10;;
